createdAt,value
2022-11-16T00:01:14.401Z,16.09
2022-11-16T00:03:42.559Z,16.14
2022-11-16T00:06:10.733Z,13.74
2022-11-16T00:08:39.930Z,16.12
2022-11-16T00:11:08.249Z,14.00
2022-11-16T00:13:38.015Z,14.28
2022-11-16T00:16:06.609Z,14.89
2022-11-16T00:18:35.069Z,15.39
2022-11-16T00:21:05.873Z,16.08
2022-11-16T00:23:33.945Z,14.74
2022-11-16T00:26:06.022Z,13.58
2022-11-16T00:28:34.358Z,14.96
2022-11-16T00:31:05.065Z,14.62
2022-11-16T00:33:33.351Z,15.41
2022-11-16T00:36:02.337Z,15.46
2022-11-16T00:38:30.691Z,15.96
2022-11-16T00:40:58.744Z,15.68
2022-11-16T00:43:26.888Z,15.06
2022-11-16T00:45:54.780Z,14.91
2022-11-16T00:48:24.403Z,14.26
2022-11-16T00:50:52.466Z,13.17
2022-11-16T00:53:20.939Z,15.07
2022-11-16T00:55:49.159Z,15.58
2022-11-16T00:58:17.558Z,13.73
2022-11-16T01:00:45.483Z,13.68
2022-11-16T01:03:13.494Z,14.44
2022-11-16T01:05:42.920Z,15.09
2022-11-16T01:08:11.023Z,12.94
2022-11-16T01:10:39.957Z,14.67
2022-11-16T01:13:06.948Z,15.87
2022-11-16T01:15:34.974Z,15.47
2022-11-16T01:18:03.024Z,13.71
2022-11-16T01:20:31.664Z,13.97
2022-11-16T01:23:01.346Z,14.07
2022-11-16T01:25:29.390Z,13.22
2022-11-16T01:27:59.653Z,15.93
2022-11-16T01:30:27.607Z,13.37
2022-11-16T01:32:55.398Z,14.30
2022-11-16T01:35:23.221Z,14.11
2022-11-16T01:37:51.266Z,15.12
2022-11-16T01:40:20.813Z,13.79
2022-11-16T01:42:48.858Z,14.77
2022-11-16T01:45:20.416Z,14.54
2022-11-16T01:47:48.363Z,15.22
2022-11-16T01:50:17.667Z,16.08
2022-11-16T01:52:49.790Z,16.04
2022-11-16T01:55:20.374Z,13.97
2022-11-16T01:57:50.707Z,13.41
2022-11-16T02:00:19.279Z,14.03
2022-11-16T02:02:47.272Z,14.51
2022-11-16T02:05:23.211Z,15.62
2022-11-16T02:08:21.077Z,14.16
2022-11-16T02:11:09.942Z,15.84
2022-11-16T02:13:43.880Z,13.82
2022-11-16T02:16:17.528Z,14.44
2022-11-16T02:18:51.777Z,14.88
2022-11-16T02:21:35.388Z,13.86
2022-11-16T02:24:27.181Z,15.69
2022-11-16T02:27:17.406Z,15.68
2022-11-16T02:29:47.410Z,15.53
2022-11-16T02:32:18.205Z,13.87
2022-11-16T02:34:48.615Z,14.77
2022-11-16T02:37:18.737Z,14.94
2022-11-16T02:39:47.904Z,13.27
2022-11-16T02:42:18.350Z,14.38
2022-11-16T02:44:48.618Z,14.54
2022-11-16T02:47:19.242Z,13.72
2022-11-16T02:49:52.337Z,13.71
2022-11-16T02:52:20.172Z,14.46
2022-11-16T02:54:48.057Z,14.20
2022-11-16T02:57:40.301Z,14.25
2022-11-16T03:00:12.223Z,15.53
2022-11-16T03:02:44.810Z,14.40
2022-11-16T03:05:15.688Z,14.79
2022-11-16T03:07:47.593Z,14.92
2022-11-16T03:10:36.031Z,13.53
2022-11-16T03:13:03.837Z,15.23
2022-11-16T03:15:33.134Z,15.42
2022-11-16T03:18:01.253Z,14.39
2022-11-16T03:20:29.215Z,14.03
2022-11-16T03:22:58.869Z,14.74
2022-11-16T03:25:28.148Z,14.44
2022-11-16T03:27:57.144Z,13.83
2022-11-16T03:30:25.759Z,14.84
2022-11-16T03:32:56.238Z,14.59
2022-11-16T03:35:28.481Z,14.89
2022-11-16T03:37:57.550Z,13.89
2022-11-16T03:40:25.839Z,15.57
2022-11-16T03:42:53.732Z,13.56
2022-11-16T03:45:21.645Z,15.34
2022-11-16T03:47:49.648Z,14.03
2022-11-16T03:50:19.234Z,14.10
2022-11-16T03:52:47.262Z,13.06
2022-11-16T03:55:15.241Z,15.53
2022-11-16T03:57:43.192Z,14.54
2022-11-16T04:00:12.761Z,12.74
2022-11-16T04:02:40.810Z,14.29
2022-11-16T04:05:27.560Z,14.83
2022-11-16T04:08:14.436Z,12.91
2022-11-16T04:10:59.693Z,14.98
2022-11-16T04:13:46.409Z,14.38
2022-11-16T04:16:31.848Z,13.56
2022-11-16T04:19:17.312Z,15.33
2022-11-16T04:22:03.430Z,13.46
2022-11-16T04:24:41.528Z,14.35
2022-11-16T04:27:36.084Z,15.31
2022-11-16T04:30:04.422Z,14.85
2022-11-16T04:32:54.685Z,13.95
2022-11-16T04:35:40.033Z,14.09
2022-11-16T04:38:07.893Z,15.17
2022-11-16T04:40:37.991Z,15.29
2022-11-16T04:43:05.808Z,14.91
2022-11-16T04:45:51.287Z,14.59
2022-11-16T04:48:19.627Z,15.32
2022-11-16T04:50:47.604Z,14.68
2022-11-16T04:53:15.568Z,14.15
2022-11-16T04:55:44.730Z,12.75
2022-11-16T04:58:12.502Z,14.43
2022-11-16T05:00:40.243Z,14.38
2022-11-16T05:03:07.925Z,15.00
2022-11-16T05:05:35.582Z,15.00
2022-11-16T05:08:05.516Z,14.91
2022-11-16T05:10:33.179Z,14.38
2022-11-16T05:13:02.332Z,14.57
2022-11-16T05:15:30.149Z,13.10
2022-11-16T05:17:58.269Z,14.85
2022-11-16T05:20:43.616Z,12.46
2022-11-16T05:23:31.806Z,14.56
2022-11-16T05:25:59.491Z,13.90
2022-11-16T05:28:28.636Z,14.26
2022-11-16T05:30:56.433Z,14.05
2022-11-16T05:33:24.269Z,14.18
2022-11-16T05:35:52.113Z,13.80
2022-11-16T05:38:19.892Z,14.08
2022-11-16T05:40:47.622Z,14.02
2022-11-16T05:43:15.314Z,13.80
2022-11-16T05:45:45.147Z,15.09
2022-11-16T05:48:12.934Z,12.56
2022-11-16T05:50:42.910Z,15.09
2022-11-16T05:53:11.081Z,14.27
2022-11-16T05:55:38.849Z,13.01
2022-11-16T05:58:06.554Z,14.43
2022-11-16T06:00:34.316Z,14.67
2022-11-16T06:03:03.550Z,13.62
2022-11-16T06:05:35.089Z,15.17
2022-11-16T06:11:10.810Z,14.81
2022-11-16T06:13:38.622Z,14.74
2022-11-16T06:16:07.104Z,15.14
2022-11-16T06:18:39.374Z,13.50
2022-11-16T06:21:07.380Z,14.22
2022-11-16T06:23:35.172Z,13.12
2022-11-16T06:26:03.000Z,14.12
2022-11-16T06:28:31.462Z,15.06
2022-11-16T06:30:59.325Z,14.05
2022-11-16T06:33:32.192Z,13.03
2022-11-16T06:36:02.666Z,14.96
2022-11-16T06:38:30.563Z,14.27
2022-11-16T06:40:59.579Z,14.68
2022-11-16T06:43:27.677Z,14.14
2022-11-16T06:45:56.728Z,13.18
2022-11-16T06:48:24.768Z,14.79
2022-11-16T06:50:53.011Z,13.77
2022-11-16T06:53:27.549Z,13.14
2022-11-16T06:55:56.989Z,13.10
2022-11-16T06:58:24.717Z,13.88
2022-11-16T07:00:52.687Z,14.02
2022-11-16T07:03:20.441Z,12.88
2022-11-16T07:05:48.182Z,12.83
2022-11-16T07:08:16.006Z,12.53
2022-11-16T07:10:45.191Z,13.45
2022-11-16T07:13:12.932Z,14.61
2022-11-16T07:15:40.689Z,13.93
2022-11-16T07:18:08.571Z,13.65
2022-11-16T07:20:38.123Z,12.42
2022-11-16T07:23:10.136Z,12.44
2022-11-16T07:25:40.920Z,12.75
2022-11-16T07:28:10.275Z,13.66
2022-11-16T07:30:38.034Z,14.44
2022-11-16T07:33:05.780Z,13.41
2022-11-16T07:35:33.601Z,13.36
2022-11-16T07:38:01.720Z,13.22
2022-11-16T07:40:29.561Z,13.06
2022-11-16T07:42:58.561Z,14.09
2022-11-16T07:45:27.802Z,13.61
2022-11-16T07:47:55.529Z,15.13
2022-11-16T07:50:23.392Z,15.10
2022-11-16T07:52:51.189Z,15.84
2022-11-16T07:55:18.974Z,17.21
2022-11-16T07:57:51.954Z,16.88
2022-11-16T08:00:21.141Z,18.95
2022-11-16T08:02:50.309Z,17.82
2022-11-16T08:05:17.990Z,18.87
2022-11-16T08:07:45.674Z,18.08
2022-11-16T08:10:13.960Z,18.35
2022-11-16T08:12:41.804Z,16.81
2022-11-16T08:15:10.337Z,18.27
2022-11-16T08:17:38.193Z,17.68
2022-11-16T08:20:09.601Z,18.33
2022-11-16T08:22:37.356Z,20.41
2022-11-16T08:25:05.940Z,20.04
2022-11-16T08:27:33.876Z,21.08
2022-11-16T08:30:03.111Z,22.35
2022-11-16T08:32:30.873Z,23.76
2022-11-16T08:34:58.647Z,23.35
2022-11-16T08:37:28.463Z,23.26
2022-11-16T08:39:56.221Z,25.10
2022-11-16T08:42:24.077Z,24.86
2022-11-16T08:44:51.789Z,25.20
2022-11-16T08:47:19.711Z,25.87
2022-11-16T08:49:49.733Z,26.99
2022-11-16T08:52:17.647Z,26.42
2022-11-16T08:54:47.161Z,26.28
2022-11-16T08:57:15.012Z,26.35
2022-11-16T08:59:42.764Z,26.67
2022-11-16T09:02:10.764Z,27.36
2022-11-16T09:04:38.488Z,28.73
2022-11-16T09:07:06.265Z,27.93
2022-11-16T09:09:34.146Z,28.71
2022-11-16T09:12:03.357Z,26.46
2022-11-16T09:14:31.151Z,27.45
2022-11-16T09:16:58.962Z,25.41
2022-11-16T09:19:26.720Z,24.17
2022-11-16T09:21:54.440Z,23.15
2022-11-16T09:24:22.193Z,22.81
2022-11-16T09:26:52.803Z,21.88
2022-11-16T09:29:22.033Z,21.55
2022-11-16T09:31:49.802Z,19.42
2022-11-16T09:34:17.566Z,20.45
2022-11-16T09:36:45.495Z,18.86
2022-11-16T09:39:31.651Z,20.09
2022-11-16T09:42:04.694Z,17.56
2022-11-16T09:44:41.261Z,17.12
2022-11-16T09:47:10.984Z,18.50
2022-11-16T09:49:40.798Z,16.61
2022-11-16T09:52:10.336Z,20.45
2022-11-16T09:54:39.973Z,22.44
2022-11-16T09:57:12.425Z,23.58
2022-11-16T09:59:43.584Z,26.10
2022-11-16T10:02:18.519Z,27.90
2022-11-16T10:04:52.483Z,28.74
2022-11-16T10:07:25.855Z,30.13
2022-11-16T10:09:53.793Z,28.74
2022-11-16T10:12:22.238Z,27.09
2022-11-16T10:15:12.844Z,25.97
2022-11-16T10:17:56.069Z,24.85
2022-11-16T10:20:42.841Z,24.13
2022-11-16T10:23:13.144Z,22.83
2022-11-16T10:25:43.707Z,22.33
2022-11-16T10:28:22.859Z,21.08
2022-11-16T10:33:22.833Z,22.99
2022-11-16T10:35:53.755Z,23.34
2022-11-16T10:38:23.754Z,25.38
2022-11-16T10:41:20.309Z,27.10
2022-11-16T10:52:14.744Z,32.54
2022-11-16T10:55:23.947Z,32.36
2022-11-16T11:00:43.882Z,32.92
2022-11-16T11:47:06.324Z,38.80
2022-11-16T11:50:10.453Z,37.29
2022-11-16T11:53:13.705Z,38.81
2022-11-16T11:56:09.204Z,37.68
2022-11-16T11:58:54.345Z,38.31
2022-11-16T12:02:09.892Z,37.30
2022-11-16T12:05:11.733Z,39.35
2022-11-16T12:08:14.864Z,40.44
2022-11-16T12:10:46.322Z,39.97
2022-11-16T12:13:26.549Z,40.87
2022-11-16T12:16:01.394Z,41.36
2022-11-16T12:18:38.279Z,40.89
2022-11-16T12:21:12.193Z,39.93
2022-11-16T12:24:10.081Z,39.37
2022-11-16T12:33:36.741Z,36.57
2022-11-16T12:36:33.713Z,31.37
2022-11-16T12:39:15.281Z,30.99
2022-11-16T12:46:05.730Z,26.95
2022-11-16T13:07:47.643Z,21.95
2022-11-16T13:11:33.755Z,21.12
2022-11-16T13:18:33.384Z,21.29
2022-11-16T13:33:08.652Z,21.09
2022-11-16T13:35:37.339Z,20.50
2022-11-16T13:38:05.554Z,19.46
2022-11-16T13:40:33.687Z,19.72
2022-11-16T13:43:21.196Z,20.17
2022-11-16T13:45:57.081Z,20.45
2022-11-16T13:48:27.773Z,20.32
2022-11-16T13:50:56.261Z,17.96
2022-11-16T13:54:25.284Z,19.35
2022-11-16T13:56:17.376Z,20.12
2022-11-16T13:58:46.067Z,19.95
2022-11-16T14:01:15.434Z,17.21
2022-11-16T14:03:44.893Z,18.68
2022-11-16T14:06:52.955Z,19.65
2022-11-16T14:09:43.622Z,19.54
2022-11-16T14:12:45.150Z,19.40
2022-11-16T14:18:39.943Z,18.11
2022-11-16T14:21:16.756Z,17.33
2022-11-16T14:24:08.646Z,16.83
2022-11-16T14:26:44.055Z,16.62
2022-11-16T14:29:27.856Z,17.11
2022-11-16T14:31:56.993Z,17.31
2022-11-16T14:34:30.230Z,18.63
2022-11-16T14:36:59.947Z,16.77
2022-11-16T14:39:33.693Z,15.85
2022-11-16T14:42:05.918Z,16.19
2022-11-16T14:44:35.910Z,15.68
2022-11-16T14:47:06.992Z,16.07
2022-11-16T14:49:35.789Z,17.16
2022-11-16T14:52:25.458Z,14.99
2022-11-16T14:54:54.847Z,17.97
2022-11-16T14:57:26.310Z,16.58
2022-11-16T15:00:09.131Z,18.28
2022-11-16T15:02:37.334Z,17.64
2022-11-16T15:05:11.064Z,17.73
2022-11-16T15:07:42.513Z,16.83
2022-11-16T15:10:12.985Z,16.58
2022-11-16T15:12:54.348Z,17.20
2022-11-16T15:15:24.553Z,15.56
2022-11-16T15:17:55.758Z,15.71
2022-11-16T15:20:25.196Z,16.54
2022-11-16T15:23:30.854Z,15.01
2022-11-16T15:26:03.323Z,15.90
2022-11-16T15:28:33.301Z,16.21
2022-11-16T15:31:05.429Z,15.17
2022-11-16T15:37:21.772Z,17.20
2022-11-16T15:40:07.660Z,15.63
2022-11-16T15:42:35.947Z,15.75
2022-11-16T15:45:04.663Z,15.41
2022-11-16T15:48:01.972Z,14.74
2022-11-16T15:50:29.619Z,17.39
2022-11-16T15:52:59.596Z,17.11
2022-11-16T15:55:34.794Z,17.51
2022-11-16T15:58:18.751Z,17.05
2022-11-16T16:00:48.565Z,17.38
2022-11-16T16:03:18.894Z,17.34
2022-11-16T16:05:46.616Z,17.30
2022-11-16T16:08:25.812Z,17.07
2022-11-16T16:11:06.957Z,16.98
2022-11-16T16:13:36.366Z,17.11
2022-11-16T16:16:27.327Z,17.07
2022-11-16T16:19:02.499Z,16.99
2022-11-16T16:21:42.326Z,16.43
2022-11-16T16:24:11.349Z,16.80
2022-11-16T16:26:40.469Z,16.74
2022-11-16T16:29:22.776Z,16.07
2022-11-16T16:31:50.495Z,15.92
2022-11-16T16:34:19.169Z,16.57
2022-11-16T16:36:47.605Z,15.41
2022-11-16T16:39:16.351Z,16.46
2022-11-16T16:41:46.352Z,15.22
2022-11-16T16:44:15.846Z,15.25
2022-11-16T16:46:44.704Z,15.65
2022-11-16T16:50:38.273Z,15.49
2022-11-16T16:54:18.189Z,16.24
2022-11-16T17:04:25.538Z,15.77
2022-11-16T17:06:54.654Z,15.92
2022-11-16T17:09:25.978Z,15.88
2022-11-16T17:11:55.313Z,15.60
2022-11-16T17:14:24.620Z,15.85
2022-11-16T17:16:52.335Z,15.44
2022-11-16T17:19:21.010Z,15.52
2022-11-16T17:21:50.081Z,15.56
2022-11-16T17:24:17.765Z,15.50
2022-11-16T17:26:50.685Z,14.80
2022-11-16T17:29:19.483Z,14.87
2022-11-16T17:31:48.232Z,14.89
2022-11-16T17:34:16.666Z,14.28
2022-11-16T17:36:44.954Z,15.59
2022-11-16T17:39:14.619Z,14.70
2022-11-16T17:41:43.702Z,14.21
2022-11-16T17:44:13.268Z,15.30
2022-11-16T17:46:42.956Z,14.94
2022-11-16T17:49:10.865Z,15.45
2022-11-16T17:51:39.351Z,13.89
2022-11-16T17:54:07.086Z,14.69
2022-11-16T17:56:36.267Z,13.98
2022-11-16T17:59:04.100Z,13.82
2022-11-16T18:01:32.064Z,14.41
2022-11-16T18:04:00.697Z,14.58
2022-11-16T18:06:28.662Z,14.16
2022-11-16T18:08:57.954Z,14.58
2022-11-16T18:11:26.884Z,14.33
2022-11-16T18:13:57.040Z,14.64
2022-11-16T18:16:25.519Z,14.43
2022-11-16T18:18:56.955Z,13.83
2022-11-16T18:21:24.804Z,14.18
2022-11-16T18:23:52.668Z,12.80
2022-11-16T18:26:21.942Z,14.14
2022-11-16T18:28:50.112Z,15.00
2022-11-16T18:31:20.658Z,13.90
2022-11-16T18:33:49.150Z,13.05
2022-11-16T18:36:17.245Z,13.03
2022-11-16T18:38:45.196Z,14.26
2022-11-16T18:41:16.849Z,13.00
2022-11-16T18:43:50.535Z,14.64
2022-11-16T18:46:19.942Z,14.19
2022-11-16T18:48:48.200Z,13.82
2022-11-16T18:51:16.361Z,14.16
2022-11-16T18:53:44.418Z,12.86
2022-11-16T18:56:12.482Z,13.77
2022-11-16T18:58:55.649Z,13.28
2022-11-16T19:01:26.074Z,13.85
2022-11-16T19:03:54.307Z,13.09
2022-11-16T19:06:22.532Z,13.15
2022-11-16T19:08:56.343Z,14.68
2022-11-16T19:11:24.507Z,12.95
2022-11-16T19:13:53.586Z,12.88
2022-11-16T19:16:21.368Z,13.79
2022-11-16T19:18:50.566Z,12.45
2022-11-16T19:21:19.432Z,13.63
2022-11-16T19:23:47.951Z,13.74
2022-11-16T19:26:16.369Z,13.72
2022-11-16T19:28:44.792Z,14.09
2022-11-16T19:31:13.552Z,13.99
2022-11-16T19:33:41.474Z,14.02
2022-11-16T19:36:11.812Z,13.11
2022-11-16T19:38:39.704Z,13.48
2022-11-16T19:41:07.841Z,14.75
2022-11-16T19:43:37.093Z,11.61
2022-11-16T19:46:05.141Z,12.71
2022-11-16T19:48:33.229Z,14.18
2022-11-16T19:51:05.625Z,14.07
2022-11-16T19:53:35.432Z,14.86
2022-11-16T19:56:03.402Z,12.73
2022-11-16T19:58:32.120Z,14.87
2022-11-16T20:01:03.949Z,12.57
2022-11-16T20:03:32.168Z,13.41
2022-11-16T20:06:09.879Z,14.25
2022-11-16T20:08:39.601Z,14.42
2022-11-16T20:11:13.998Z,14.28
2022-11-16T20:13:42.086Z,13.82
2022-11-16T20:16:11.050Z,14.27
2022-11-16T20:18:38.869Z,14.96
2022-11-16T20:21:07.511Z,13.84
2022-11-16T20:23:39.860Z,15.05
2022-11-16T20:26:07.915Z,14.41
2022-11-16T20:28:36.292Z,13.47
2022-11-16T20:31:05.414Z,13.74
2022-11-16T20:33:34.440Z,13.97
2022-11-16T20:36:05.074Z,14.51
2022-11-16T20:38:33.328Z,13.26
2022-11-16T20:41:10.308Z,13.49
2022-11-16T20:43:39.240Z,14.94
2022-11-16T20:46:07.521Z,14.89
2022-11-16T20:48:35.297Z,14.72
2022-11-16T20:51:03.039Z,15.30
2022-11-16T20:53:30.818Z,13.59
2022-11-16T20:55:58.591Z,14.62
2022-11-16T20:58:27.796Z,13.23
2022-11-16T21:00:55.612Z,14.65
2022-11-16T21:03:23.361Z,14.28
2022-11-16T21:05:51.841Z,13.07
2022-11-16T21:08:19.646Z,14.89
2022-11-16T21:10:48.284Z,14.75
2022-11-16T21:13:34.671Z,14.76
2022-11-16T21:16:06.117Z,15.21
2022-11-16T21:18:34.062Z,14.35
2022-11-16T21:21:01.908Z,13.78
2022-11-16T21:23:30.719Z,14.20
2022-11-16T21:26:02.749Z,14.53
2022-11-16T21:28:30.565Z,14.47
2022-11-16T21:30:58.592Z,14.54
2022-11-16T21:33:27.801Z,15.19
2022-11-16T21:35:55.895Z,13.60
2022-11-16T21:38:23.921Z,14.26
2022-11-16T21:40:51.809Z,14.49
2022-11-16T21:43:19.565Z,13.52
2022-11-16T21:45:48.219Z,13.94
2022-11-16T21:48:15.982Z,12.57
2022-11-16T21:50:45.247Z,14.48
2022-11-16T21:53:12.963Z,13.52
2022-11-16T21:55:40.775Z,14.19
2022-11-16T21:58:08.546Z,12.83
2022-11-16T22:00:36.476Z,13.72
2022-11-16T22:03:04.276Z,14.28
2022-11-16T22:05:49.714Z,12.93
2022-11-16T22:08:19.047Z,14.08
2022-11-16T22:10:50.718Z,13.06
2022-11-16T22:13:18.474Z,15.31
2022-11-16T22:15:46.310Z,12.92
2022-11-16T22:18:14.417Z,13.92
2022-11-16T22:20:42.183Z,14.15
2022-11-16T22:23:09.934Z,14.02
2022-11-16T22:25:39.283Z,13.23
2022-11-16T22:28:20.241Z,14.68
2022-11-16T22:30:52.073Z,13.77
2022-11-16T22:33:20.389Z,13.14
2022-11-16T22:35:48.217Z,13.75
2022-11-16T22:38:15.932Z,13.74
2022-11-16T22:40:51.736Z,13.96
2022-11-16T22:43:19.758Z,13.13
2022-11-16T22:45:47.959Z,14.38
2022-11-16T22:48:15.871Z,13.25
2022-11-16T22:50:43.715Z,15.40
2022-11-16T22:53:11.754Z,15.41
2022-11-16T22:55:39.737Z,13.47
2022-11-16T22:58:08.967Z,14.31
2022-11-16T23:00:41.845Z,14.77
2022-11-16T23:03:10.127Z,15.16
2022-11-16T23:05:37.903Z,15.42
2022-11-16T23:08:06.085Z,15.45
2022-11-16T23:10:53.891Z,15.41
2022-11-16T23:13:43.152Z,15.45
2022-11-16T23:16:10.972Z,15.47
2022-11-16T23:18:38.816Z,15.32
2022-11-16T23:21:24.525Z,15.33
2022-11-16T23:24:21.387Z,14.52
2022-11-16T23:27:06.991Z,14.26
2022-11-16T23:29:36.293Z,14.15
